Terminal Aerodrome Forecast
Issued by NWS

Home | Current Version | Previous Version | Text Only | Print | Product List | Glossary On
Versions: 1 2 3 4 5 6 7 8 9 10 11 12 13 14
000
FTUS46 KPDT 040058 AAA
TAFBDN
TAF AMD
KBDN 040058Z 0401/0424 34010G16KT P6SM SCT060
     FM040400 VRB04KT P6SM BKN050 BKN120
     FM041500 VRB03KT P6SM BKN040 BKN100
     FM041900 34012G18KT P6SM VCSH OVC040=

USA.gov is the U.S. government's official web portal to all federal, state and local government web resources and services.